createdAt,value
2022-08-07T00:04:59.466Z,78
2022-08-07T00:09:16.922Z,78.1
2022-08-07T00:11:19.955Z,78.2
2022-08-07T00:13:24.075Z,78.3
2022-08-07T00:15:35.988Z,78.5
2022-08-07T00:23:54.701Z,78.8
2022-08-07T00:26:12.911Z,79.1
2022-08-07T00:30:26.773Z,79.5
2022-08-07T00:32:28.400Z,79.6
2022-08-07T00:34:26.707Z,79.8
2022-08-07T00:36:32.532Z,79.8
2022-08-07T00:38:39.133Z,79.9
2022-08-07T00:40:44.135Z,80
2022-08-07T00:42:50.350Z,80
2022-08-07T00:47:06.575Z,80.2
2022-08-07T00:49:10.339Z,80.3
2022-08-07T00:51:58.540Z,80.2
2022-08-07T00:53:50.593Z,80.4
2022-08-07T00:56:03.106Z,80.5
2022-08-07T00:58:02.090Z,80.8
2022-08-07T01:00:07.899Z,80.9
2022-08-07T01:02:28.758Z,81.2
2022-08-07T01:04:24.560Z,81.3
2022-08-07T01:06:25.294Z,81.3
2022-08-07T01:08:31.113Z,81.6
2022-08-07T01:10:36.932Z,81.6
2022-08-07T01:12:53.836Z,82
2022-08-07T01:14:56.937Z,82.1
2022-08-07T01:16:57.324Z,82.3
2022-08-07T01:19:03.119Z,82.2
2022-08-07T01:21:10.282Z,82.4
2022-08-07T01:25:40.550Z,82.5
2022-08-07T01:27:32.020Z,82.8
2022-08-07T01:29:35.089Z,83
2022-08-07T01:31:40.926Z,83.1
2022-08-07T01:33:55.858Z,83.3
2022-08-07T01:35:53.173Z,83.4
2022-08-07T01:37:58.302Z,83.5
2022-08-07T01:42:38.598Z,83.6
2022-08-07T01:44:18.678Z,83.7
2022-08-07T01:46:24.467Z,83.9
2022-08-07T01:48:20.530Z,83.9
2022-08-07T01:49:34.671Z,84.2
2022-08-07T01:52:04.071Z,84.2
2022-08-07T01:54:11.679Z,84.3
2022-08-07T01:58:05.920Z,84.8
2022-08-07T02:02:12.536Z,84.9
2022-08-07T02:04:18.346Z,85
2022-08-07T02:08:29.893Z,85
2022-08-07T02:10:38.688Z,85.1
2022-08-07T02:12:46.601Z,85.3
2022-08-07T02:14:50.274Z,85.3
2022-08-07T02:16:56.079Z,85.4
2022-08-07T02:19:02.017Z,85.5
2022-08-07T02:21:07.660Z,85.5
2022-08-07T02:23:13.470Z,85.5
2022-08-07T02:26:10.081Z,85.7
2022-08-07T02:27:34.686Z,85.7
2022-08-07T02:29:36.823Z,85.7
2022-08-07T02:31:39.718Z,85.7
2022-08-07T02:34:03.677Z,85.7
2022-08-07T02:36:30.776Z,85.7
2022-08-07T02:46:00.669Z,86.2
2022-08-07T02:47:27.628Z,86.1
2022-08-07T02:49:58.549Z,86.2
2022-08-07T02:51:42.357Z,86.2
2022-08-07T02:56:04.169Z,86.7
2022-08-07T02:57:59.767Z,86.8
2022-08-07T03:00:11.187Z,86.9
2022-08-07T03:02:11.245Z,87
2022-08-07T03:04:16.992Z,87
2022-08-07T03:06:32.158Z,87
2022-08-07T03:08:31.541Z,87
2022-08-07T03:10:46.155Z,87
2022-08-07T03:12:43.315Z,86.9
2022-08-07T03:14:52.316Z,87
2022-08-07T03:16:54.915Z,87.1
2022-08-07T03:19:00.778Z,87.1
2022-08-07T03:21:08.591Z,87.2
2022-08-07T03:23:19.385Z,87.2
2022-08-07T03:25:21.357Z,87.2
2022-08-07T03:27:30.685Z,87.1
2022-08-07T03:29:33.945Z,87.1
2022-08-07T03:31:43.041Z,87.1
2022-08-07T03:33:44.251Z,87.2
2022-08-07T03:35:50.702Z,87.3
2022-08-07T03:37:58.816Z,87.6
2022-08-07T03:40:15.008Z,87.7
2022-08-07T03:42:10.392Z,87.8
2022-08-07T03:43:14.977Z,87.9
2022-08-07T03:45:30.414Z,87.8
2022-08-07T03:49:32.243Z,87.8
2022-08-07T03:51:47.135Z,87.8
2022-08-07T03:55:57.618Z,87.8
2022-08-07T03:58:34.342Z,87.9
2022-08-07T04:00:05.778Z,88
2022-08-07T04:02:11.568Z,87.7
2022-08-07T04:08:32.031Z,87.9
2022-08-07T04:12:43.622Z,88
2022-08-07T04:14:49.390Z,88
2022-08-07T04:19:03.811Z,88.1
2022-08-07T04:21:09.939Z,88.1
2022-08-07T04:25:21.719Z,88.2
2022-08-07T04:27:27.545Z,88.2
2022-08-07T04:32:03.202Z,88.1
2022-08-07T04:33:45.022Z,88
2022-08-07T04:35:54.231Z,88
2022-08-07T04:38:02.925Z,88
2022-08-07T04:40:05.456Z,88.1
2022-08-07T04:42:31.114Z,87.7
2022-08-07T04:44:36.872Z,87.7
2022-08-07T04:47:03.926Z,87.6
2022-08-07T04:50:57.210Z,87.7
2022-08-07T04:55:14.894Z,88
2022-08-07T05:01:30.749Z,87.9
2022-08-07T05:04:07.064Z,87.7
2022-08-07T05:05:52.538Z,87.6
2022-08-07T05:07:48.195Z,87.5
2022-08-07T05:09:52.634Z,87.4
2022-08-07T05:14:52.046Z,87.2
2022-08-07T05:16:09.959Z,87.1
2022-08-07T05:20:24.552Z,87.2
2022-08-07T05:22:30.310Z,87.2
2022-08-07T05:24:39.499Z,87
2022-08-07T05:26:41.903Z,86.9
2022-08-07T05:28:50.130Z,86.6
2022-08-07T05:30:53.505Z,86.4
2022-08-07T05:35:08.038Z,86
2022-08-07T05:37:13.836Z,85.9
2022-08-07T05:38:59.383Z,85.8
2022-08-07T05:40:24.086Z,85.6
2022-08-07T05:42:34.237Z,85.4
2022-08-07T05:44:35.606Z,85.1
2022-08-07T05:46:44.354Z,84.8
2022-08-07T05:50:55.958Z,84.5
2022-08-07T05:53:01.730Z,84.2
2022-08-07T05:55:10.425Z,84.2
2022-08-07T05:57:13.363Z,83.9
2022-08-07T06:01:35.853Z,83.1
2022-08-07T06:03:53.423Z,83
2022-08-07T06:05:40.560Z,82.5
2022-08-07T06:08:13.682Z,80.7
2022-08-07T06:10:04.422Z,79.6
2022-08-07T06:11:56.953Z,79.3
2022-08-07T06:14:13.756Z,78.7
2022-08-07T06:16:13.513Z,77.2
2022-08-07T06:24:38.036Z,75
2022-08-07T06:26:40.557Z,73.5
2022-08-07T06:28:46.362Z,69.5
2022-08-07T06:30:55.150Z,67.6
2022-08-07T06:33:00.938Z,67
2022-08-07T06:35:10.569Z,66.8
2022-08-07T06:38:19.316Z,66.6
2022-08-07T06:40:22.875Z,63.7
2022-08-07T06:42:35.357Z,55.1
2022-08-07T06:44:39.742Z,48.7
2022-08-07T06:48:48.945Z,47.3
2022-08-07T06:50:54.724Z,46.9
2022-08-07T06:53:00.492Z,46.6
2022-08-07T06:55:33.712Z,46.1
2022-08-07T06:57:12.007Z,46.3
2022-08-07T07:00:14.489Z,45.7
2022-08-07T07:01:26.492Z,45.2
2022-08-07T07:03:48.663Z,45.1
2022-08-07T07:06:03.765Z,45.3
2022-08-07T07:08:00.194Z,44.9
2022-08-07T07:09:49.339Z,44.5
2022-08-07T07:12:07.723Z,44.6
2022-08-07T07:14:03.740Z,45.4
2022-08-07T07:18:15.062Z,45.9
2022-08-07T07:22:37.000Z,46.2
2022-08-07T07:24:32.142Z,46.5
2022-08-07T07:29:38.575Z,46.7
2022-08-07T07:30:51.989Z,46.8
2022-08-07T07:32:57.616Z,46.5
2022-08-07T07:34:01.928Z,46.6
2022-08-07T07:40:18.926Z,48.3
2022-08-07T07:42:32.834Z,48.9
2022-08-07T07:46:54.220Z,50.6
2022-08-07T07:48:45.515Z,50.7
2022-08-07T07:50:50.086Z,51.2
2022-08-07T07:52:55.739Z,51.5
2022-08-07T07:55:01.411Z,51.6
2022-08-07T07:57:10.073Z,52.1
2022-08-07T07:59:15.748Z,52.4
2022-08-07T08:05:53.817Z,50.7
2022-08-07T08:07:42.505Z,50.5
2022-08-07T08:09:52.486Z,50.3
2022-08-07T08:12:02.963Z,49.8
2022-08-07T08:16:04.037Z,49.5
2022-08-07T08:24:36.169Z,48.7
2022-08-07T08:26:35.261Z,48.7
2022-08-07T08:28:43.429Z,48.9
2022-08-07T08:30:51.062Z,49.4
2022-08-07T08:45:59.343Z,48.8
2022-08-07T08:50:06.028Z,48.7
2022-08-07T08:52:13.923Z,48.6
2022-08-07T08:54:19.791Z,48.3
2022-08-07T08:56:25.397Z,48
2022-08-07T08:58:31.002Z,47.8
2022-08-07T09:00:42.488Z,47.4
2022-08-07T09:02:42.307Z,47.2
2022-08-07T09:04:47.828Z,47.2
2022-08-07T09:06:53.450Z,47.2
2022-08-07T09:09:02.036Z,47.5
2022-08-07T09:11:08.287Z,47.7
2022-08-07T09:13:14.747Z,47.9
2022-08-07T09:16:25.844Z,48.1
2022-08-07T09:17:24.488Z,48.3
2022-08-07T09:19:52.095Z,48.2
2022-08-07T09:22:09.761Z,48
2022-08-07T09:24:31.402Z,47.4
2022-08-07T09:25:54.308Z,46.9
2022-08-07T09:28:00.112Z,46.9
2022-08-07T09:30:02.115Z,47
2022-08-07T09:31:05.511Z,47.1
2022-08-07T09:37:47.803Z,46.8
2022-08-07T09:39:53.706Z,46.6
2022-08-07T09:41:58.343Z,46.4
2022-08-07T09:44:06.658Z,46.3
2022-08-07T09:47:23.983Z,46.3
2022-08-07T09:48:01.375Z,46
2022-08-07T09:50:18.347Z,45.9
2022-08-07T09:54:16.410Z,45.2
2022-08-07T09:56:19.884Z,45
2022-08-07T09:58:32.399Z,45.2
2022-08-07T10:00:31.979Z,45.2
2022-08-07T10:02:37.535Z,45.4
2022-08-07T10:04:45.972Z,45.3
2022-08-07T10:06:55.628Z,45.6
2022-08-07T10:13:11.018Z,45.5
2022-08-07T10:15:15.475Z,45.9
2022-08-07T10:19:25.673Z,45.5
2022-08-07T10:22:14.841Z,45.6
2022-08-07T10:24:05.005Z,45.6
2022-08-07T10:25:45.615Z,45.5
2022-08-07T10:28:55.622Z,46.8
2022-08-07T10:33:06.975Z,46.9
2022-08-07T10:35:16.595Z,47.2
2022-08-07T10:37:26.492Z,47.1
2022-08-07T10:43:38.423Z,46.4
2022-08-07T10:45:58.346Z,45.6
2022-08-07T10:49:58.511Z,44.1
2022-08-07T10:52:13.235Z,43.8
2022-08-07T10:54:09.870Z,43.1
2022-08-07T10:56:20.802Z,42.8
2022-08-07T10:58:25.065Z,42.6
2022-08-07T11:00:39.622Z,42.7
2022-08-07T11:02:33.057Z,42.8
2022-08-07T11:04:41.295Z,44.7
2022-08-07T11:06:46.976Z,45.2
2022-08-07T11:08:52.673Z,45.4
2022-08-07T11:13:04.063Z,45.3
2022-08-07T11:17:23.197Z,43.4
2022-08-07T11:19:27.460Z,43
2022-08-07T11:21:32.046Z,42.9
2022-08-07T11:23:38.720Z,42.6
2022-08-07T11:24:45.674Z,42.5
2022-08-07T11:26:50.120Z,42.4
2022-08-07T11:30:56.982Z,41.7
2022-08-07T11:33:07.903Z,41.4
2022-08-07T11:35:11.391Z,41.2
2022-08-07T11:37:17.047Z,40.9
2022-08-07T11:42:02.224Z,40.1
2022-08-07T11:43:54.745Z,39.6
2022-08-07T11:45:40.648Z,39.2
2022-08-07T11:47:55.998Z,38.6
2022-08-07T11:50:32.036Z,38.7
2022-08-07T11:54:10.115Z,39.3
2022-08-07T12:04:37.316Z,40.2
2022-08-07T12:08:48.630Z,40.1
2022-08-07T12:11:08.026Z,40.1
2022-08-07T12:12:59.960Z,40.2
2022-08-07T12:17:20.361Z,40.7
2022-08-07T12:19:21.276Z,40.7
2022-08-07T12:22:35.932Z,40.7
2022-08-07T12:24:07.142Z,40.6
2022-08-07T12:26:05.685Z,40.6
2022-08-07T12:30:11.815Z,40.2
2022-08-07T12:32:17.212Z,39.9
2022-08-07T12:38:42.584Z,40.3
2022-08-07T12:40:48.588Z,40.7
2022-08-07T12:42:54.896Z,40.8
2022-08-07T12:44:54.406Z,41.1
2022-08-07T12:49:10.179Z,41
2022-08-07T12:53:18.141Z,41.6
2022-08-07T12:59:55.030Z,42.8
2022-08-07T13:04:02.431Z,42.9
2022-08-07T13:06:02.758Z,42.7
2022-08-07T13:08:12.602Z,42.6
2022-08-07T13:10:19.440Z,42.4
2022-08-07T13:12:15.140Z,42.1
2022-08-07T13:14:20.504Z,41.8
2022-08-07T13:16:26.223Z,41.6
2022-08-07T13:18:31.987Z,41.5
2022-08-07T13:32:32.382Z,38.4
2022-08-07T13:36:25.798Z,38.4
2022-08-07T13:40:42.246Z,38.8
2022-08-07T13:42:45.228Z,39.3
2022-08-07T13:44:55.437Z,39.4
2022-08-07T13:46:56.732Z,39.4
2022-08-07T13:49:02.377Z,39.4
2022-08-07T13:51:28.409Z,39.3
2022-08-07T13:53:14.574Z,39.2
2022-08-07T13:55:25.770Z,39.3
2022-08-07T14:04:05.708Z,41.1
2022-08-07T14:08:00.901Z,41.1
2022-08-07T14:10:21.943Z,41
2022-08-07T14:14:17.021Z,40.9
2022-08-07T14:16:27.189Z,41.4
2022-08-07T14:17:51.617Z,43.1
2022-08-07T14:20:40.153Z,44.4
2022-08-07T14:22:03.054Z,44.6
2022-08-07T14:24:00.391Z,45.2
2022-08-07T14:25:53.057Z,45.9
2022-08-07T14:28:11.317Z,46.2
2022-08-07T14:38:31.209Z,46
2022-08-07T14:40:36.627Z,45.8
2022-08-07T14:43:01.443Z,45.3
2022-08-07T14:44:48.032Z,45
2022-08-07T14:47:08.490Z,44.8
2022-08-07T14:48:59.499Z,44.4
2022-08-07T14:51:05.243Z,44.2
2022-08-07T14:53:10.985Z,43.8
2022-08-07T14:55:19.721Z,42.8
2022-08-07T15:00:05.093Z,41.9
2022-08-07T15:05:54.737Z,41.5
2022-08-07T15:07:54.415Z,41.5
2022-08-07T15:10:05.010Z,41
2022-08-07T15:12:08.690Z,40.5
2022-08-07T15:14:14.466Z,40.2
2022-08-07T15:15:22.542Z,39.7
2022-08-07T15:17:24.569Z,39.3
2022-08-07T15:20:30.878Z,39.2
2022-08-07T15:25:50.526Z,39.3
2022-08-07T15:28:32.503Z,39.4
2022-08-07T15:30:06.817Z,39.3
2022-08-07T15:32:07.835Z,39.3
2022-08-07T15:34:14.770Z,39.2
2022-08-07T15:38:30.980Z,39.1
2022-08-07T15:40:35.205Z,39.2
2022-08-07T15:42:43.799Z,39.3
2022-08-07T15:44:52.019Z,39.4
2022-08-07T15:46:52.878Z,39.5
2022-08-07T15:49:11.745Z,39.7
2022-08-07T15:51:09.542Z,39.7
2022-08-07T15:53:11.360Z,39.9
2022-08-07T15:55:17.106Z,39.9
2022-08-07T15:57:39.434Z,39.8
2022-08-07T15:59:38.987Z,39.8
2022-08-07T16:01:38.565Z,39.9
2022-08-07T16:05:47.518Z,40
2022-08-07T16:08:31.977Z,40.6
2022-08-07T16:10:02.851Z,41
2022-08-07T16:12:07.784Z,41.4
2022-08-07T16:16:49.251Z,42.2
2022-08-07T16:18:51.572Z,42.1
2022-08-07T16:23:05.338Z,42.1
2022-08-07T16:31:50.050Z,42
2022-08-07T16:34:03.054Z,42.1
2022-08-07T16:35:51.779Z,42.2
2022-08-07T16:38:02.919Z,42.7
2022-08-07T16:39:54.105Z,43
2022-08-07T16:41:59.849Z,43.2
2022-08-07T16:44:40.464Z,43.1
2022-08-07T16:50:35.740Z,43.9
2022-08-07T16:52:51.185Z,44.1
2022-08-07T16:54:37.465Z,44.6
2022-08-07T16:56:43.235Z,44.7
2022-08-07T16:59:10.581Z,44.8
2022-08-07T17:00:54.839Z,44.8
2022-08-07T17:03:04.981Z,44.8
2022-08-07T17:06:01.974Z,44.7
2022-08-07T17:07:15.114Z,44.7
2022-08-07T17:10:32.380Z,44.3
2022-08-07T17:12:33.873Z,44.3
2022-08-07T17:14:36.781Z,44.3
2022-08-07T17:16:43.729Z,44.2
2022-08-07T17:18:51.328Z,44.3
2022-08-07T17:20:57.107Z,44.4
2022-08-07T17:23:02.897Z,44.3
2022-08-07T17:25:10.156Z,44.2
2022-08-07T17:27:32.395Z,44.2
2022-08-07T17:30:14.990Z,44.1
2022-08-07T17:31:26.041Z,44.1
2022-08-07T17:34:33.402Z,44.2
2022-08-07T17:35:54.941Z,44.3
2022-08-07T17:38:11.315Z,44.4
2022-08-07T17:39:57.727Z,44.5
2022-08-07T17:42:03.505Z,44.7
2022-08-07T17:44:06.543Z,45
2022-08-07T17:46:09.501Z,45.2
2022-08-07T17:50:30.264Z,46.6
2022-08-07T17:52:30.560Z,47.1
2022-08-07T17:54:53.323Z,47.5
2022-08-07T17:56:49.612Z,47.9
2022-08-07T17:58:47.184Z,48.1
2022-08-07T18:00:53.040Z,48.3
2022-08-07T18:03:01.773Z,48.6
2022-08-07T18:05:21.733Z,48.8
2022-08-07T18:07:20.816Z,48.9
2022-08-07T18:08:24.431Z,49.1
2022-08-07T18:10:33.091Z,49.3
2022-08-07T18:12:30.416Z,49.6
2022-08-07T18:14:37.513Z,49.8
2022-08-07T18:16:58.418Z,50.5
2022-08-07T18:21:06.463Z,51.2
2022-08-07T18:21:06.854Z,50.9
2022-08-07T18:23:01.279Z,51.5
2022-08-07T18:25:19.385Z,51.8
2022-08-07T18:27:12.830Z,52
2022-08-07T18:30:04.597Z,52.2
2022-08-07T18:31:27.391Z,52.4
2022-08-07T18:33:33.249Z,52.5
2022-08-07T18:35:52.059Z,52.5
2022-08-07T18:38:56.078Z,52.6
2022-08-07T18:40:08.818Z,52.6
2022-08-07T18:41:56.509Z,52.8
2022-08-07T18:44:02.216Z,52.8
2022-08-07T18:50:36.698Z,53.2
2022-08-07T18:54:34.244Z,53.4
2022-08-07T18:56:40.036Z,53.5
2022-08-07T18:58:51.611Z,53.7
2022-08-07T19:00:59.238Z,54
2022-08-07T19:03:00.556Z,54.2
2022-08-07T19:05:14.875Z,54.3
2022-08-07T19:06:10.634Z,54.6
2022-08-07T19:08:16.491Z,54.6
2022-08-07T19:10:22.288Z,54.8
2022-08-07T19:12:28.376Z,54.8
2022-08-07T19:14:36.854Z,55.1
2022-08-07T19:16:43.665Z,55.1
2022-08-07T19:23:17.815Z,55.7
2022-08-07T19:28:30.134Z,56.2
2022-08-07T19:31:37.325Z,56.8
2022-08-07T19:33:34.843Z,57
2022-08-07T19:35:37.953Z,57.2
2022-08-07T19:37:57.032Z,57.3
2022-08-07T19:39:56.445Z,57.6
2022-08-07T19:42:05.695Z,57.7
2022-08-07T19:44:04.268Z,58.3
2022-08-07T19:46:10.831Z,58.5
2022-08-07T19:48:18.821Z,58.9
2022-08-07T19:50:41.053Z,59.1
2022-08-07T19:52:27.831Z,59.4
2022-08-07T19:54:45.117Z,59.6
2022-08-07T19:57:51.991Z,59.8
2022-08-07T20:00:55.436Z,60.6
2022-08-07T20:02:59.525Z,60.8
2022-08-07T20:05:30.746Z,61
2022-08-07T20:07:47.566Z,61.2
2022-08-07T20:10:34.183Z,61.4
2022-08-07T20:12:22.329Z,61.9
2022-08-07T20:13:56.990Z,62.2
2022-08-07T20:16:02.806Z,62.8
2022-08-07T20:18:17.986Z,63.1
2022-08-07T20:26:45.269Z,64.4
2022-08-07T20:28:40.651Z,64.7
2022-08-07T20:30:46.895Z,65
2022-08-07T20:32:52.301Z,65.2
2022-08-07T20:34:58.071Z,65.5
2022-08-07T20:37:03.900Z,65.7
2022-08-07T20:40:03.004Z,65.9
2022-08-07T20:41:18.594Z,66.4
2022-08-07T20:43:24.332Z,66.8
2022-08-07T20:46:24.855Z,67.1
2022-08-07T20:47:55.625Z,67.4
2022-08-07T20:49:59.586Z,67.7
2022-08-07T20:51:50.187Z,68
2022-08-07T20:54:03.019Z,68.2
2022-08-07T20:56:02.219Z,68.7
2022-08-07T21:00:13.869Z,69.1
2022-08-07T21:01:19.783Z,69.2
2022-08-07T21:03:25.994Z,69.5
2022-08-07T21:05:52.759Z,69.8
2022-08-07T21:07:35.721Z,70
2022-08-07T21:09:52.578Z,70.5
2022-08-07T21:11:51.398Z,70.8
2022-08-07T21:14:20.218Z,71
2022-08-07T21:16:01.945Z,71.1
2022-08-07T21:18:20.435Z,71.2
2022-08-07T21:20:18.915Z,71.4
2022-08-07T21:22:19.853Z,71.6
2022-08-07T21:24:28.384Z,72.1
2022-08-07T21:26:34.740Z,72.3
2022-08-07T21:30:45.651Z,72.7
2022-08-07T21:32:52.472Z,72.9
2022-08-07T21:37:03.082Z,73.2
2022-08-07T21:39:45.843Z,73.7
2022-08-07T21:47:35.145Z,74.4
2022-08-07T21:50:02.364Z,74.5
2022-08-07T21:51:54.522Z,74.7
2022-08-07T21:53:55.565Z,75.2
2022-08-07T21:56:01.414Z,75.3
2022-08-07T21:58:07.221Z,75.4
2022-08-07T21:59:11.615Z,75.7
2022-08-07T22:01:17.446Z,75.8
2022-08-07T22:03:30.794Z,76.1
2022-08-07T22:05:44.713Z,76.2
2022-08-07T22:07:58.317Z,77
2022-08-07T22:12:05.699Z,77.6
2022-08-07T22:16:38.554Z,77.9
2022-08-07T22:22:28.956Z,78.4
2022-08-07T22:26:34.758Z,78.7
2022-08-07T22:28:40.584Z,79
2022-08-07T22:30:52.680Z,79.1
2022-08-07T22:32:52.244Z,79.4
2022-08-07T22:34:58.085Z,79.6
2022-08-07T22:37:09.359Z,80.1
2022-08-07T22:39:12.721Z,80.2
2022-08-07T22:43:24.329Z,80.4
2022-08-07T22:46:40.925Z,80.5
2022-08-07T22:47:35.976Z,80.5
2022-08-07T22:49:42.903Z,80.7
2022-08-07T22:51:51.939Z,81.1
2022-08-07T22:54:09.353Z,81.3
2022-08-07T22:56:02.212Z,81.5
2022-08-07T22:57:06.775Z,81.8
2022-08-07T22:59:12.425Z,81.8
2022-08-07T23:01:18.251Z,82.1
2022-08-07T23:03:28.561Z,82.2
2022-08-07T23:06:10.187Z,82.7
2022-08-07T23:07:41.874Z,82.9
2022-08-07T23:10:04.110Z,83.3
2022-08-07T23:11:50.331Z,83.5
2022-08-07T23:14:10.837Z,83.9
2022-08-07T23:16:06.349Z,84.1
2022-08-07T23:20:16.531Z,84.9
2022-08-07T23:22:22.524Z,85.1
2022-08-07T23:24:28.160Z,85.3
2022-08-07T23:26:33.982Z,85.5
2022-08-07T23:28:44.124Z,85.7
2022-08-07T23:30:46.829Z,86.1
2022-08-07T23:34:36.922Z,86.3
2022-08-07T23:37:20.118Z,87.5
2022-08-07T23:39:11.859Z,87.8
2022-08-07T23:49:50.434Z,88.9
2022-08-07T23:53:06.669Z,89.2
2022-08-07T23:53:55.474Z,89.3
2022-08-07T23:56:21.404Z,89.2
2022-08-07T23:58:27.024Z,89.4
